ADDS TAF Board (Experimental) INFO Settings
IDs: Format: Expanded Condensed

KSEA - Seattle-Tacoma Intl, WA, US

Issued at 0900 UTC 26 Aug 2016
Updated at 1009 UTC 26 Aug 2016
Time0953Z 26/11Z 26/12Z 26/13Z 26/14Z 26/15Z 26/16Z 26/17Z 26/18Z 26/19Z 26/20Z 26/21Z 26/22Z 26/23Z
Type OBS PRVL PRVL PRVL PRVL PRVL PRVL PRVL PRVL PRVL PRVL PRVL PRVL PRVL
VIS 10 >6 >6 >6 >6 >6 >6 >6 >6 >6 >6 >6 >6 >6
CIG -- -- -- -- -- -- -- -- -- -- -- -- -- --
Cover CLR FEW FEW FEW FEW FEW FEW FEW SCT SCT SCT SCT SCT SCT
FltCat VFR VFR VFR VFR VFR VFR VFR VFR VFR VFR VFR VFR VFR VFR
WX -- -- -- -- -- -- -- -- -- -- -- -- -- --
WDir VRB 30 30 30 30 30 30 30 280 280 280 280 280 280
WSpd 0 5 5 5 5 5 5 5 6 6 6 6 6 6
WGst -- -- -- -- -- -- -- -- -- -- -- -- -- --
R16/34
XWnd VRB 3 3 3 3 3 3 3 -6 -6 -6 -6 -6 -6
HWnd VRB -4 -4 -4 -4 -4 -4 -4 -1 -1 -1 -1 -1 -1

Raw TAF
KSEA 260900Z 2609/2712 03005KT P6SM FEW250
  FM261800 28006KT P6SM SCT250


Raw METAR
KSEA 260953Z 00000KT 10SM CLR 22/11 A2996 RMK AO2 SLP147 T02170111 $
KSEA 260853Z 13003KT 10SM CLR 21/11 A2997 RMK AO2 SLP149 T02110111 56005 $
KSEA 260753Z 09004KT 10SM CLR 23/11 A2997 RMK AO2 SLP153 T02280106 403281011 $

METAR Board
Radar Display
Forecast Discussion

TAF Board Legend

Potential Impact
Threat None Slight Moderate High
Visibility (sm) ≥5.1 5.1>X≥3 3>X≥1 <1
Ceiling (100 ft) ≥30.1 30.1>X≥10 10>X≥5 <5
Wind Speed (kt) <10 10≤X<20 20≤X<30 ≥30
Wind Gust (kt) <15 15≤X<25 25≤X<35 ≥35
Weather No Wx Reported VCTS,-TS,-FZRA,SN TS,FZRA +TS,+FZRA,+SN